sensor_id;sensor_type;location;lat;lon;timestamp;P1;durP1;ratioP1;P2;durP2;ratioP2
21420;SDS011;10871;50.144;8.428;2023-02-26T00:01:58;7.65;;;3.72;;
21420;SDS011;10871;50.144;8.428;2023-02-26T00:04:27;6.40;;;3.13;;
21420;SDS011;10871;50.144;8.428;2023-02-26T00:06:54;6.07;;;2.90;;
21420;SDS011;10871;50.144;8.428;2023-02-26T00:09:25;6.60;;;2.70;;
21420;SDS011;10871;50.144;8.428;2023-02-26T00:11:52;4.97;;;2.45;;
21420;SDS011;10871;50.144;8.428;2023-02-26T00:14:19;4.72;;;2.50;;
21420;SDS011;10871;50.144;8.428;2023-02-26T00:19:35;4.85;;;3.20;;
21420;SDS011;10871;50.144;8.428;2023-02-26T00:22:02;5.53;;;3.05;;
21420;SDS011;10871;50.144;8.428;2023-02-26T00:24:29;5.38;;;2.90;;
21420;SDS011;10871;50.144;8.428;2023-02-26T00:26:55;5.38;;;2.50;;
21420;SDS011;10871;50.144;8.428;2023-02-26T00:29:23;7.07;;;3.10;;
21420;SDS011;10871;50.144;8.428;2023-02-26T00:31:50;5.75;;;3.17;;
21420;SDS011;10871;50.144;8.428;2023-02-26T00:34:17;6.78;;;3.10;;
21420;SDS011;10871;50.144;8.428;2023-02-26T00:36:45;7.95;;;3.20;;
21420;SDS011;10871;50.144;8.428;2023-02-26T00:39:19;5.72;;;2.80;;
21420;SDS011;10871;50.144;8.428;2023-02-26T00:41:51;6.00;;;3.15;;
21420;SDS011;10871;50.144;8.428;2023-02-26T00:44:18;7.47;;;3.00;;
21420;SDS011;10871;50.144;8.428;2023-02-26T00:46:51;5.65;;;2.70;;
21420;SDS011;10871;50.144;8.428;2023-02-26T00:51:58;7.75;;;3.05;;
21420;SDS011;10871;50.144;8.428;2023-02-26T00:54:27;7.43;;;3.15;;
21420;SDS011;10871;50.144;8.428;2023-02-26T00:56:54;6.40;;;2.83;;
21420;SDS011;10871;50.144;8.428;2023-02-26T00:59:21;5.40;;;2.45;;
21420;SDS011;10871;50.144;8.428;2023-02-26T01:01:48;5.97;;;2.38;;
21420;SDS011;10871;50.144;8.428;2023-02-26T01:04:16;4.45;;;2.10;;
21420;SDS011;10871;50.144;8.428;2023-02-26T01:07:01;5.43;;;2.20;;
21420;SDS011;10871;50.144;8.428;2023-02-26T01:09:28;5.47;;;2.10;;
21420;SDS011;10871;50.144;8.428;2023-02-26T01:11:56;4.18;;;1.98;;
21420;SDS011;10871;50.144;8.428;2023-02-26T01:14:24;4.00;;;2.50;;
21420;SDS011;10871;50.144;8.428;2023-02-26T01:19:24;6.80;;;2.67;;
21420;SDS011;10871;50.144;8.428;2023-02-26T01:21:59;4.00;;;2.28;;
21420;SDS011;10871;50.144;8.428;2023-02-26T01:24:27;4.13;;;2.28;;
21420;SDS011;10871;50.144;8.428;2023-02-26T01:26:55;5.00;;;2.40;;
21420;SDS011;10871;50.144;8.428;2023-02-26T01:29:22;9.27;;;2.72;;
21420;SDS011;10871;50.144;8.428;2023-02-26T01:40:00;5.47;;;1.98;;
21420;SDS011;10871;50.144;8.428;2023-02-26T01:42:30;5.18;;;2.30;;
21420;SDS011;10871;50.144;8.428;2023-02-26T01:45:02;7.25;;;2.10;;
21420;SDS011;10871;50.144;8.428;2023-02-26T01:47:35;3.65;;;1.98;;
21420;SDS011;10871;50.144;8.428;2023-02-26T01:50:07;6.43;;;2.03;;
21420;SDS011;10871;50.144;8.428;2023-02-26T01:55:15;9.07;;;1.70;;
21420;SDS011;10871;50.144;8.428;2023-02-26T01:57:45;7.43;;;1.83;;
21420;SDS011;10871;50.144;8.428;2023-02-26T02:00:11;4.63;;;1.90;;
21420;SDS011;10871;50.144;8.428;2023-02-26T02:02:39;4.43;;;1.90;;
21420;SDS011;10871;50.144;8.428;2023-02-26T02:05:11;2.85;;;1.75;;
21420;SDS011;10871;50.144;8.428;2023-02-26T02:07:38;2.15;;;1.50;;
21420;SDS011;10871;50.144;8.428;2023-02-26T02:10:05;4.57;;;1.60;;
21420;SDS011;10871;50.144;8.428;2023-02-26T02:13:35;4.82;;;1.80;;
21420;SDS011;10871;50.144;8.428;2023-02-26T02:15:35;5.03;;;2.08;;
21420;SDS011;10871;50.144;8.428;2023-02-26T02:18:11;7.57;;;2.40;;
21420;SDS011;10871;50.144;8.428;2023-02-26T02:23:21;6.57;;;2.22;;
21420;SDS011;10871;50.144;8.428;2023-02-26T02:31:10;6.00;;;1.90;;
21420;SDS011;10871;50.144;8.428;2023-02-26T02:33:47;3.55;;;2.00;;
21420;SDS011;10871;50.144;8.428;2023-02-26T02:36:31;5.72;;;2.10;;
21420;SDS011;10871;50.144;8.428;2023-02-26T02:39:01;5.13;;;2.20;;
21420;SDS011;10871;50.144;8.428;2023-02-26T02:41:33;7.53;;;2.20;;
21420;SDS011;10871;50.144;8.428;2023-02-26T02:44:01;6.05;;;2.30;;
21420;SDS011;10871;50.144;8.428;2023-02-26T02:46:30;5.43;;;2.30;;
21420;SDS011;10871;50.144;8.428;2023-02-26T02:48:59;3.70;;;2.58;;
21420;SDS011;10871;50.144;8.428;2023-02-26T02:51:29;3.95;;;2.40;;
21420;SDS011;10871;50.144;8.428;2023-02-26T02:53:58;4.75;;;2.90;;
21420;SDS011;10871;50.144;8.428;2023-02-26T02:56:28;4.63;;;2.63;;
21420;SDS011;10871;50.144;8.428;2023-02-26T02:59:05;7.18;;;3.13;;
21420;SDS011;10871;50.144;8.428;2023-02-26T03:01:36;9.35;;;2.58;;
21420;SDS011;10871;50.144;8.428;2023-02-26T03:04:11;5.75;;;2.72;;
21420;SDS011;10871;50.144;8.428;2023-02-26T03:06:38;7.85;;;3.17;;
21420;SDS011;10871;50.144;8.428;2023-02-26T03:09:05;5.63;;;2.92;;
21420;SDS011;10871;50.144;8.428;2023-02-26T03:11:32;6.65;;;2.78;;
21420;SDS011;10871;50.144;8.428;2023-02-26T03:14:00;5.72;;;2.80;;
21420;SDS011;10871;50.144;8.428;2023-02-26T03:16:43;6.28;;;2.60;;
21420;SDS011;10871;50.144;8.428;2023-02-26T03:19:18;7.10;;;2.90;;
21420;SDS011;10871;50.144;8.428;2023-02-26T03:22:00;6.50;;;3.55;;
21420;SDS011;10871;50.144;8.428;2023-02-26T03:24:49;7.38;;;3.03;;
21420;SDS011;10871;50.144;8.428;2023-02-26T03:30:06;4.93;;;3.20;;
21420;SDS011;10871;50.144;8.428;2023-02-26T03:35:30;9.10;;;3.42;;
21420;SDS011;10871;50.144;8.428;2023-02-26T03:37:59;5.22;;;3.30;;
21420;SDS011;10871;50.144;8.428;2023-02-26T03:40:40;7.43;;;3.47;;
21420;SDS011;10871;50.144;8.428;2023-02-26T03:43:12;6.05;;;3.08;;
21420;SDS011;10871;50.144;8.428;2023-02-26T03:45:41;7.70;;;3.08;;
21420;SDS011;10871;50.144;8.428;2023-02-26T03:48:10;4.28;;;2.58;;
21420;SDS011;10871;50.144;8.428;2023-02-26T03:50:41;8.25;;;3.30;;
21420;SDS011;10871;50.144;8.428;2023-02-26T03:53:33;7.97;;;3.25;;
21420;SDS011;10871;50.144;8.428;2023-02-26T03:56:15;9.18;;;2.95;;
21420;SDS011;10871;50.144;8.428;2023-02-26T03:59:00;5.57;;;3.05;;
21420;SDS011;10871;50.144;8.428;2023-02-26T04:01:50;7.63;;;3.00;;
21420;SDS011;10871;50.144;8.428;2023-02-26T04:04:25;4.18;;;2.80;;
21420;SDS011;10871;50.144;8.428;2023-02-26T04:06:53;6.45;;;3.17;;
21420;SDS011;10871;50.144;8.428;2023-02-26T04:09:20;6.60;;;3.30;;
21420;SDS011;10871;50.144;8.428;2023-02-26T04:11:48;8.02;;;3.45;;
21420;SDS011;10871;50.144;8.428;2023-02-26T04:14:16;5.13;;;3.30;;
21420;SDS011;10871;50.144;8.428;2023-02-26T04:16:43;7.68;;;3.67;;
21420;SDS011;10871;50.144;8.428;2023-02-26T04:19:10;5.57;;;3.03;;
21420;SDS011;10871;50.144;8.428;2023-02-26T04:21:38;4.50;;;3.22;;
21420;SDS011;10871;50.144;8.428;2023-02-26T04:24:04;4.55;;;3.17;;
21420;SDS011;10871;50.144;8.428;2023-02-26T04:26:33;5.93;;;3.15;;
21420;SDS011;10871;50.144;8.428;2023-02-26T04:29:00;6.28;;;2.80;;
21420;SDS011;10871;50.144;8.428;2023-02-26T04:31:27;6.55;;;3.25;;
21420;SDS011;10871;50.144;8.428;2023-02-26T04:33:55;8.32;;;3.10;;
21420;SDS011;10871;50.144;8.428;2023-02-26T04:36:21;5.10;;;2.90;;
21420;SDS011;10871;50.144;8.428;2023-02-26T04:38:49;6.40;;;2.90;;
21420;SDS011;10871;50.144;8.428;2023-02-26T04:41:15;6.90;;;3.00;;
21420;SDS011;10871;50.144;8.428;2023-02-26T04:43:45;6.35;;;2.80;;
21420;SDS011;10871;50.144;8.428;2023-02-26T04:46:24;4.22;;;2.92;;
21420;SDS011;10871;50.144;8.428;2023-02-26T04:48:52;6.80;;;3.15;;
21420;SDS011;10871;50.144;8.428;2023-02-26T04:51:19;4.20;;;2.67;;
21420;SDS011;10871;50.144;8.428;2023-02-26T04:53:48;6.80;;;3.13;;
21420;SDS011;10871;50.144;8.428;2023-02-26T04:56:15;7.90;;;2.90;;
21420;SDS011;10871;50.144;8.428;2023-02-26T04:58:43;10.20;;;3.13;;
21420;SDS011;10871;50.144;8.428;2023-02-26T05:01:14;9.32;;;2.95;;
21420;SDS011;10871;50.144;8.428;2023-02-26T05:03:41;6.53;;;2.83;;
21420;SDS011;10871;50.144;8.428;2023-02-26T05:06:08;4.43;;;2.50;;
21420;SDS011;10871;50.144;8.428;2023-02-26T05:08:35;7.70;;;2.53;;
21420;SDS011;10871;50.144;8.428;2023-02-26T05:11:03;7.80;;;3.83;;
21420;SDS011;10871;50.144;8.428;2023-02-26T05:13:29;3.25;;;2.30;;
21420;SDS011;10871;50.144;8.428;2023-02-26T05:15:56;6.75;;;2.13;;
21420;SDS011;10871;50.144;8.428;2023-02-26T05:18:22;4.78;;;2.28;;
21420;SDS011;10871;50.144;8.428;2023-02-26T05:20:51;5.43;;;2.40;;
21420;SDS011;10871;50.144;8.428;2023-02-26T05:23:18;4.43;;;2.17;;
21420;SDS011;10871;50.144;8.428;2023-02-26T05:25:44;6.50;;;2.45;;
21420;SDS011;10871;50.144;8.428;2023-02-26T05:28:12;6.65;;;2.63;;
21420;SDS011;10871;50.144;8.428;2023-02-26T05:30:39;2.67;;;2.20;;
21420;SDS011;10871;50.144;8.428;2023-02-26T05:33:06;5.10;;;2.20;;
21420;SDS011;10871;50.144;8.428;2023-02-26T05:35:32;6.68;;;2.45;;
21420;SDS011;10871;50.144;8.428;2023-02-26T05:37:59;6.63;;;2.72;;
21420;SDS011;10871;50.144;8.428;2023-02-26T05:40:26;9.20;;;2.38;;
21420;SDS011;10871;50.144;8.428;2023-02-26T05:42:52;6.88;;;2.28;;
21420;SDS011;10871;50.144;8.428;2023-02-26T05:45:19;5.25;;;2.10;;
21420;SDS011;10871;50.144;8.428;2023-02-26T05:47:46;3.22;;;1.92;;
21420;SDS011;10871;50.144;8.428;2023-02-26T05:50:12;6.38;;;2.30;;
21420;SDS011;10871;50.144;8.428;2023-02-26T05:52:38;7.45;;;2.35;;
21420;SDS011;10871;50.144;8.428;2023-02-26T05:55:05;8.52;;;2.20;;
21420;SDS011;10871;50.144;8.428;2023-02-26T05:57:32;6.82;;;2.42;;
21420;SDS011;10871;50.144;8.428;2023-02-26T05:59:58;4.05;;;2.20;;
21420;SDS011;10871;50.144;8.428;2023-02-26T06:02:25;4.28;;;2.20;;
21420;SDS011;10871;50.144;8.428;2023-02-26T06:04:51;6.35;;;2.60;;
21420;SDS011;10871;50.144;8.428;2023-02-26T06:07:18;4.50;;;2.40;;
21420;SDS011;10871;50.144;8.428;2023-02-26T06:09:45;3.42;;;2.20;;
21420;SDS011;10871;50.144;8.428;2023-02-26T06:12:11;3.13;;;2.40;;
21420;SDS011;10871;50.144;8.428;2023-02-26T06:14:38;7.22;;;2.15;;
21420;SDS011;10871;50.144;8.428;2023-02-26T06:17:05;3.25;;;2.08;;
21420;SDS011;10871;50.144;8.428;2023-02-26T06:19:33;3.00;;;2.15;;
21420;SDS011;10871;50.144;8.428;2023-02-26T06:22:00;3.47;;;2.10;;
21420;SDS011;10871;50.144;8.428;2023-02-26T06:24:26;2.58;;;2.08;;
21420;SDS011;10871;50.144;8.428;2023-02-26T06:26:53;5.28;;;2.30;;
21420;SDS011;10871;50.144;8.428;2023-02-26T06:29:20;3.00;;;2.30;;
21420;SDS011;10871;50.144;8.428;2023-02-26T06:31:47;3.40;;;2.33;;
21420;SDS011;10871;50.144;8.428;2023-02-26T06:34:13;7.50;;;2.45;;
21420;SDS011;10871;50.144;8.428;2023-02-26T06:36:40;5.90;;;2.20;;
21420;SDS011;10871;50.144;8.428;2023-02-26T06:39:07;6.10;;;2.90;;
21420;SDS011;10871;50.144;8.428;2023-02-26T06:41:33;3.72;;;2.00;;
21420;SDS011;10871;50.144;8.428;2023-02-26T06:44:00;6.30;;;2.20;;
21420;SDS011;10871;50.144;8.428;2023-02-26T06:46:26;7.53;;;2.15;;
21420;SDS011;10871;50.144;8.428;2023-02-26T06:48:53;3.55;;;2.30;;
21420;SDS011;10871;50.144;8.428;2023-02-26T06:51:20;4.50;;;2.35;;
21420;SDS011;10871;50.144;8.428;2023-02-26T06:53:46;3.35;;;2.40;;
21420;SDS011;10871;50.144;8.428;2023-02-26T06:56:13;6.60;;;2.47;;
21420;SDS011;10871;50.144;8.428;2023-02-26T06:58:39;4.30;;;2.30;;
21420;SDS011;10871;50.144;8.428;2023-02-26T07:01:06;3.95;;;2.60;;
21420;SDS011;10871;50.144;8.428;2023-02-26T07:03:33;6.32;;;2.50;;
21420;SDS011;10871;50.144;8.428;2023-02-26T07:06:00;4.50;;;2.40;;
21420;SDS011;10871;50.144;8.428;2023-02-26T07:08:46;3.17;;;2.30;;
21420;SDS011;10871;50.144;8.428;2023-02-26T07:11:13;3.35;;;2.55;;
21420;SDS011;10871;50.144;8.428;2023-02-26T07:13:40;2.88;;;2.10;;
21420;SDS011;10871;50.144;8.428;2023-02-26T07:16:06;6.45;;;2.40;;
21420;SDS011;10871;50.144;8.428;2023-02-26T07:18:34;4.43;;;2.30;;
21420;SDS011;10871;50.144;8.428;2023-02-26T07:21:01;7.45;;;2.45;;
21420;SDS011;10871;50.144;8.428;2023-02-26T07:23:29;7.03;;;2.03;;
21420;SDS011;10871;50.144;8.428;2023-02-26T07:25:55;3.50;;;2.70;;
21420;SDS011;10871;50.144;8.428;2023-02-26T07:28:22;2.75;;;2.33;;
21420;SDS011;10871;50.144;8.428;2023-02-26T07:30:49;2.10;;;1.90;;
21420;SDS011;10871;50.144;8.428;2023-02-26T07:33:16;2.47;;;2.00;;
21420;SDS011;10871;50.144;8.428;2023-02-26T07:35:42;3.83;;;2.40;;
21420;SDS011;10871;50.144;8.428;2023-02-26T07:38:10;3.40;;;2.28;;
21420;SDS011;10871;50.144;8.428;2023-02-26T07:40:37;4.38;;;2.58;;
21420;SDS011;10871;50.144;8.428;2023-02-26T07:43:03;4.30;;;2.63;;
21420;SDS011;10871;50.144;8.428;2023-02-26T07:45:30;8.98;;;2.80;;
21420;SDS011;10871;50.144;8.428;2023-02-26T07:47:56;3.13;;;2.28;;
21420;SDS011;10871;50.144;8.428;2023-02-26T07:50:23;3.65;;;2.13;;
21420;SDS011;10871;50.144;8.428;2023-02-26T07:52:51;5.28;;;2.30;;
21420;SDS011;10871;50.144;8.428;2023-02-26T07:55:19;5.63;;;2.45;;
21420;SDS011;10871;50.144;8.428;2023-02-26T07:57:46;6.50;;;2.80;;
21420;SDS011;10871;50.144;8.428;2023-02-26T08:00:13;5.10;;;2.70;;
21420;SDS011;10871;50.144;8.428;2023-02-26T08:02:40;6.13;;;2.80;;
21420;SDS011;10871;50.144;8.428;2023-02-26T08:05:06;4.18;;;2.70;;
21420;SDS011;10871;50.144;8.428;2023-02-26T08:07:33;4.35;;;2.28;;
21420;SDS011;10871;50.144;8.428;2023-02-26T08:10:00;2.90;;;2.15;;
21420;SDS011;10871;50.144;8.428;2023-02-26T08:12:27;2.72;;;1.67;;
21420;SDS011;10871;50.144;8.428;2023-02-26T08:14:53;4.30;;;1.60;;
21420;SDS011;10871;50.144;8.428;2023-02-26T08:17:20;2.85;;;2.30;;
21420;SDS011;10871;50.144;8.428;2023-02-26T08:19:46;2.58;;;1.77;;
21420;SDS011;10871;50.144;8.428;2023-02-26T08:22:13;3.28;;;1.67;;
21420;SDS011;10871;50.144;8.428;2023-02-26T08:24:39;3.97;;;1.58;;
21420;SDS011;10871;50.144;8.428;2023-02-26T08:27:06;2.42;;;1.65;;
21420;SDS011;10871;50.144;8.428;2023-02-26T08:29:33;3.58;;;1.90;;
21420;SDS011;10871;50.144;8.428;2023-02-26T08:31:59;2.08;;;1.77;;
21420;SDS011;10871;50.144;8.428;2023-02-26T08:34:26;3.03;;;1.92;;
21420;SDS011;10871;50.144;8.428;2023-02-26T08:36:53;6.78;;;1.70;;
21420;SDS011;10871;50.144;8.428;2023-02-26T08:39:19;2.80;;;2.10;;
21420;SDS011;10871;50.144;8.428;2023-02-26T08:41:45;3.45;;;1.50;;
21420;SDS011;10871;50.144;8.428;2023-02-26T08:44:12;3.20;;;1.70;;
21420;SDS011;10871;50.144;8.428;2023-02-26T08:46:38;4.03;;;1.70;;
21420;SDS011;10871;50.144;8.428;2023-02-26T08:49:06;2.97;;;1.70;;
21420;SDS011;10871;50.144;8.428;2023-02-26T08:51:33;2.60;;;1.80;;
21420;SDS011;10871;50.144;8.428;2023-02-26T08:53:59;1.90;;;1.40;;
21420;SDS011;10871;50.144;8.428;2023-02-26T08:56:25;3.47;;;1.60;;
21420;SDS011;10871;50.144;8.428;2023-02-26T08:58:53;2.35;;;1.77;;
21420;SDS011;10871;50.144;8.428;2023-02-26T09:01:19;3.17;;;1.48;;
21420;SDS011;10871;50.144;8.428;2023-02-26T09:03:46;4.55;;;2.25;;
21420;SDS011;10871;50.144;8.428;2023-02-26T09:06:13;2.25;;;1.80;;
21420;SDS011;10871;50.144;8.428;2023-02-26T09:08:40;3.72;;;1.90;;
21420;SDS011;10871;50.144;8.428;2023-02-26T09:11:07;1.90;;;1.67;;
21420;SDS011;10871;50.144;8.428;2023-02-26T09:13:33;2.83;;;1.88;;
21420;SDS011;10871;50.144;8.428;2023-02-26T09:16:00;2.53;;;1.90;;
21420;SDS011;10871;50.144;8.428;2023-02-26T09:18:27;4.38;;;1.95;;
21420;SDS011;10871;50.144;8.428;2023-02-26T09:20:53;2.72;;;1.80;;
21420;SDS011;10871;50.144;8.428;2023-02-26T09:23:20;1.90;;;1.67;;
21420;SDS011;10871;50.144;8.428;2023-02-26T09:25:50;1.70;;;1.60;;
21420;SDS011;10871;50.144;8.428;2023-02-26T09:28:17;2.67;;;1.75;;
21420;SDS011;10871;50.144;8.428;2023-02-26T09:30:44;1.75;;;1.20;;
21420;SDS011;10871;50.144;8.428;2023-02-26T09:33:10;2.58;;;2.30;;
21420;SDS011;10871;50.144;8.428;2023-02-26T09:35:37;2.85;;;2.30;;
21420;SDS011;10871;50.144;8.428;2023-02-26T09:38:04;2.47;;;1.55;;
21420;SDS011;10871;50.144;8.428;2023-02-26T09:40:36;6.85;;;6.15;;
21420;SDS011;10871;50.144;8.428;2023-02-26T09:45:36;3.00;;;1.77;;
21420;SDS011;10871;50.144;8.428;2023-02-26T09:48:04;2.70;;;1.48;;
21420;SDS011;10871;50.144;8.428;2023-02-26T09:50:40;2.90;;;1.40;;
21420;SDS011;10871;50.144;8.428;2023-02-26T09:55:38;3.08;;;1.50;;
21420;SDS011;10871;50.144;8.428;2023-02-26T09:58:09;2.20;;;1.33;;
21420;SDS011;10871;50.144;8.428;2023-02-26T10:00:37;2.70;;;1.17;;
21420;SDS011;10871;50.144;8.428;2023-02-26T10:05:39;2.80;;;1.45;;
21420;SDS011;10871;50.144;8.428;2023-02-26T10:08:14;1.77;;;1.10;;
21420;SDS011;10871;50.144;8.428;2023-02-26T10:10:58;3.28;;;1.40;;
21420;SDS011;10871;50.144;8.428;2023-02-26T10:16:03;3.05;;;1.60;;
21420;SDS011;10871;50.144;8.428;2023-02-26T10:18:31;2.25;;;1.40;;
21420;SDS011;10871;50.144;8.428;2023-02-26T10:26:12;3.85;;;2.00;;
21420;SDS011;10871;50.144;8.428;2023-02-26T10:28:42;2.08;;;1.55;;
21420;SDS011;10871;50.144;8.428;2023-02-26T10:31:17;2.27;;;1.50;;
21420;SDS011;10871;50.144;8.428;2023-02-26T10:33:49;2.13;;;1.42;;
21420;SDS011;10871;50.144;8.428;2023-02-26T10:38:47;3.10;;;1.50;;
21420;SDS011;10871;50.144;8.428;2023-02-26T10:41:15;3.53;;;1.42;;
21420;SDS011;10871;50.144;8.428;2023-02-26T10:43:58;2.38;;;1.27;;
21420;SDS011;10871;50.144;8.428;2023-02-26T10:46:36;2.10;;;1.50;;
21420;SDS011;10871;50.144;8.428;2023-02-26T10:51:43;1.58;;;1.48;;
21420;SDS011;10871;50.144;8.428;2023-02-26T10:54:21;1.95;;;1.20;;
21420;SDS011;10871;50.144;8.428;2023-02-26T10:56:50;2.80;;;1.42;;
21420;SDS011;10871;50.144;8.428;2023-02-26T10:59:16;3.55;;;1.45;;
21420;SDS011;10871;50.144;8.428;2023-02-26T11:01:43;2.85;;;1.17;;
21420;SDS011;10871;50.144;8.428;2023-02-26T11:04:11;2.05;;;1.05;;
21420;SDS011;10871;50.144;8.428;2023-02-26T11:06:52;1.35;;;1.20;;
21420;SDS011;10871;50.144;8.428;2023-02-26T11:09:30;3.72;;;1.23;;
21420;SDS011;10871;50.144;8.428;2023-02-26T11:14:36;2.55;;;1.70;;
21420;SDS011;10871;50.144;8.428;2023-02-26T11:17:06;1.30;;;1.10;;
21420;SDS011;10871;50.144;8.428;2023-02-26T11:19:36;1.88;;;1.38;;
21420;SDS011;10871;50.144;8.428;2023-02-26T11:22:04;2.38;;;1.10;;
21420;SDS011;10871;50.144;8.428;2023-02-26T11:24:33;2.08;;;1.23;;
21420;SDS011;10871;50.144;8.428;2023-02-26T11:27:02;1.58;;;1.20;;
21420;SDS011;10871;50.144;8.428;2023-02-26T11:29:32;1.80;;;1.20;;
21420;SDS011;10871;50.144;8.428;2023-02-26T11:32:00;1.85;;;1.30;;
21420;SDS011;10871;50.144;8.428;2023-02-26T11:34:30;1.60;;;1.00;;
21420;SDS011;10871;50.144;8.428;2023-02-26T11:36:57;1.83;;;1.30;;
21420;SDS011;10871;50.144;8.428;2023-02-26T11:39:29;1.77;;;1.55;;
21420;SDS011;10871;50.144;8.428;2023-02-26T11:41:58;4.95;;;1.70;;
21420;SDS011;10871;50.144;8.428;2023-02-26T11:44:31;3.08;;;1.50;;
21420;SDS011;10871;50.144;8.428;2023-02-26T11:47:01;2.30;;;1.30;;
21420;SDS011;10871;50.144;8.428;2023-02-26T11:49:28;2.35;;;1.05;;
21420;SDS011;10871;50.144;8.428;2023-02-26T11:54:30;3.28;;;1.40;;
21420;SDS011;10871;50.144;8.428;2023-02-26T11:57:04;1.42;;;1.00;;
21420;SDS011;10871;50.144;8.428;2023-02-26T11:59:31;2.28;;;1.20;;
21420;SDS011;10871;50.144;8.428;2023-02-26T12:02:05;2.55;;;1.20;;
21420;SDS011;10871;50.144;8.428;2023-02-26T12:04:38;2.45;;;1.30;;
21420;SDS011;10871;50.144;8.428;2023-02-26T12:07:07;2.17;;;1.40;;
21420;SDS011;10871;50.144;8.428;2023-02-26T12:09:36;1.35;;;1.20;;
21420;SDS011;10871;50.144;8.428;2023-02-26T12:15:08;1.98;;;0.90;;
21420;SDS011;10871;50.144;8.428;2023-02-26T12:20:09;2.63;;;1.08;;
21420;SDS011;10871;50.144;8.428;2023-02-26T12:22:49;2.47;;;1.10;;
21420;SDS011;10871;50.144;8.428;2023-02-26T12:25:41;1.83;;;1.35;;
21420;SDS011;10871;50.144;8.428;2023-02-26T12:36:11;2.47;;;1.20;;
21420;SDS011;10871;50.144;8.428;2023-02-26T12:41:21;1.20;;;1.10;;
21420;SDS011;10871;50.144;8.428;2023-02-26T12:43:54;1.95;;;1.02;;
21420;SDS011;10871;50.144;8.428;2023-02-26T12:49:49;2.38;;;1.20;;
21420;SDS011;10871;50.144;8.428;2023-02-26T12:52:06;1.30;;;1.20;;
21420;SDS011;10871;50.144;8.428;2023-02-26T12:54:43;4.40;;;2.15;;
21420;SDS011;10871;50.144;8.428;2023-02-26T13:07:15;1.92;;;1.20;;
21420;SDS011;10871;50.144;8.428;2023-02-26T13:09:50;1.35;;;1.10;;
21420;SDS011;10871;50.144;8.428;2023-02-26T13:12:27;3.25;;;1.50;;
21420;SDS011;10871;50.144;8.428;2023-02-26T13:17:51;3.55;;;1.42;;
21420;SDS011;10871;50.144;8.428;2023-02-26T13:20:26;2.38;;;1.60;;
21420;SDS011;10871;50.144;8.428;2023-02-26T13:22:58;2.55;;;1.40;;
21420;SDS011;10871;50.144;8.428;2023-02-26T13:25:32;3.08;;;1.33;;
21420;SDS011;10871;50.144;8.428;2023-02-26T13:28:01;3.10;;;1.52;;
21420;SDS011;10871;50.144;8.428;2023-02-26T13:30:38;3.53;;;1.40;;
21420;SDS011;10871;50.144;8.428;2023-02-26T13:33:06;3.63;;;1.55;;
21420;SDS011;10871;50.144;8.428;2023-02-26T13:35:40;3.47;;;1.45;;
21420;SDS011;10871;50.144;8.428;2023-02-26T13:38:16;3.47;;;1.27;;
21420;SDS011;10871;50.144;8.428;2023-02-26T13:43:22;2.00;;;1.40;;
21420;SDS011;10871;50.144;8.428;2023-02-26T13:51:30;1.80;;;1.48;;
21420;SDS011;10871;50.144;8.428;2023-02-26T13:54:06;3.17;;;1.50;;
21420;SDS011;10871;50.144;8.428;2023-02-26T14:01:34;3.00;;;1.40;;
21420;SDS011;10871;50.144;8.428;2023-02-26T14:19:40;2.33;;;1.40;;
21420;SDS011;10871;50.144;8.428;2023-02-26T14:24:43;2.15;;;1.20;;
21420;SDS011;10871;50.144;8.428;2023-02-26T14:34:47;2.80;;;1.30;;
21420;SDS011;10871;50.144;8.428;2023-02-26T14:37:14;2.30;;;1.50;;
21420;SDS011;10871;50.144;8.428;2023-02-26T14:39:42;1.25;;;1.13;;
21420;SDS011;10871;50.144;8.428;2023-02-26T14:42:32;1.23;;;0.93;;
21420;SDS011;10871;50.144;8.428;2023-02-26T14:45:42;1.17;;;1.05;;
21420;SDS011;10871;50.144;8.428;2023-02-26T14:47:49;4.65;;;1.20;;
21420;SDS011;10871;50.144;8.428;2023-02-26T14:50:20;3.17;;;1.27;;
21420;SDS011;10871;50.144;8.428;2023-02-26T14:57:49;1.83;;;1.17;;
21420;SDS011;10871;50.144;8.428;2023-02-26T15:00:25;1.08;;;0.95;;
21420;SDS011;10871;50.144;8.428;2023-02-26T15:03:07;1.30;;;0.98;;
21420;SDS011;10871;50.144;8.428;2023-02-26T15:21:16;1.45;;;1.20;;
21420;SDS011;10871;50.144;8.428;2023-02-26T15:23:48;2.03;;;1.23;;
21420;SDS011;10871;50.144;8.428;2023-02-26T15:26:20;3.08;;;1.27;;
21420;SDS011;10871;50.144;8.428;2023-02-26T15:28:48;2.15;;;1.23;;
21420;SDS011;10871;50.144;8.428;2023-02-26T15:31:16;2.15;;;1.20;;
21420;SDS011;10871;50.144;8.428;2023-02-26T15:33:46;1.00;;;0.90;;
21420;SDS011;10871;50.144;8.428;2023-02-26T15:36:13;2.72;;;1.42;;
21420;SDS011;10871;50.144;8.428;2023-02-26T15:38:44;2.35;;;1.10;;
21420;SDS011;10871;50.144;8.428;2023-02-26T15:41:10;4.25;;;1.60;;
21420;SDS011;10871;50.144;8.428;2023-02-26T15:43:37;3.03;;;1.20;;
21420;SDS011;10871;50.144;8.428;2023-02-26T15:46:08;1.20;;;1.10;;
21420;SDS011;10871;50.144;8.428;2023-02-26T15:48:36;1.85;;;1.00;;
21420;SDS011;10871;50.144;8.428;2023-02-26T15:51:04;1.83;;;1.15;;
21420;SDS011;10871;50.144;8.428;2023-02-26T15:53:36;2.20;;;1.10;;
21420;SDS011;10871;50.144;8.428;2023-02-26T15:56:04;1.13;;;0.90;;
21420;SDS011;10871;50.144;8.428;2023-02-26T16:00:59;1.75;;;1.17;;
21420;SDS011;10871;50.144;8.428;2023-02-26T16:03:28;1.63;;;1.13;;
21420;SDS011;10871;50.144;8.428;2023-02-26T16:05:56;2.42;;;1.10;;
21420;SDS011;10871;50.144;8.428;2023-02-26T16:08:23;1.00;;;0.90;;
21420;SDS011;10871;50.144;8.428;2023-02-26T16:10:50;1.20;;;0.98;;
21420;SDS011;10871;50.144;8.428;2023-02-26T16:13:28;2.05;;;1.40;;
21420;SDS011;10871;50.144;8.428;2023-02-26T16:16:00;1.77;;;1.17;;
21420;SDS011;10871;50.144;8.428;2023-02-26T16:18:30;2.33;;;1.67;;
21420;SDS011;10871;50.144;8.428;2023-02-26T16:20:57;2.45;;;1.40;;
21420;SDS011;10871;50.144;8.428;2023-02-26T16:23:28;2.70;;;1.52;;
21420;SDS011;10871;50.144;8.428;2023-02-26T16:26:00;1.95;;;1.30;;
21420;SDS011;10871;50.144;8.428;2023-02-26T16:28:29;3.30;;;1.42;;
21420;SDS011;10871;50.144;8.428;2023-02-26T16:30:58;2.35;;;1.27;;
21420;SDS011;10871;50.144;8.428;2023-02-26T16:33:25;2.90;;;1.40;;
21420;SDS011;10871;50.144;8.428;2023-02-26T16:36:03;1.40;;;0.90;;
21420;SDS011;10871;50.144;8.428;2023-02-26T16:38:31;1.67;;;1.30;;
21420;SDS011;10871;50.144;8.428;2023-02-26T16:41:08;1.65;;;1.13;;
21420;SDS011;10871;50.144;8.428;2023-02-26T16:46:34;3.10;;;2.05;;
21420;SDS011;10871;50.144;8.428;2023-02-26T16:49:03;3.55;;;1.50;;
21420;SDS011;10871;50.144;8.428;2023-02-26T16:51:33;1.95;;;1.33;;
21420;SDS011;10871;50.144;8.428;2023-02-26T16:54:01;2.67;;;1.60;;
21420;SDS011;10871;50.144;8.428;2023-02-26T16:56:34;1.55;;;1.27;;
21420;SDS011;10871;50.144;8.428;2023-02-26T17:01:48;2.35;;;1.15;;
21420;SDS011;10871;50.144;8.428;2023-02-26T17:04:16;1.75;;;1.13;;
21420;SDS011;10871;50.144;8.428;2023-02-26T17:06:43;2.80;;;1.27;;
21420;SDS011;10871;50.144;8.428;2023-02-26T17:12:10;4.05;;;1.42;;
21420;SDS011;10871;50.144;8.428;2023-02-26T17:14:45;2.33;;;1.70;;
21420;SDS011;10871;50.144;8.428;2023-02-26T17:17:13;3.85;;;1.80;;
21420;SDS011;10871;50.144;8.428;2023-02-26T17:19:39;2.30;;;1.77;;
21420;SDS011;10871;50.144;8.428;2023-02-26T17:22:09;2.65;;;1.45;;
21420;SDS011;10871;50.144;8.428;2023-02-26T17:24:37;4.57;;;1.92;;
21420;SDS011;10871;50.144;8.428;2023-02-26T17:27:16;4.80;;;2.15;;
21420;SDS011;10871;50.144;8.428;2023-02-26T17:29:44;1.40;;;1.23;;
21420;SDS011;10871;50.144;8.428;2023-02-26T17:32:16;2.90;;;1.60;;
21420;SDS011;10871;50.144;8.428;2023-02-26T17:34:43;2.83;;;1.85;;
21420;SDS011;10871;50.144;8.428;2023-02-26T17:37:10;3.08;;;1.45;;
21420;SDS011;10871;50.144;8.428;2023-02-26T17:39:38;3.58;;;1.73;;
21420;SDS011;10871;50.144;8.428;2023-02-26T17:42:14;1.92;;;1.40;;
21420;SDS011;10871;50.144;8.428;2023-02-26T17:44:41;3.22;;;1.60;;